sensor_id;sensor_type;location;lat;lon;timestamp;P1;durP1;ratioP1;P2;durP2;ratioP2
51485;SDS011;37565;51.352;6.412;2023-03-02T00:00:55;24.20;;;15.20;;
51485;SDS011;37565;51.352;6.412;2023-03-02T00:03:26;23.48;;;16.52;;
51485;SDS011;37565;51.352;6.412;2023-03-02T00:05:55;24.83;;;16.75;;
51485;SDS011;37565;51.352;6.412;2023-03-02T00:08:23;33.35;;;21.88;;
51485;SDS011;37565;51.352;6.412;2023-03-02T00:10:51;29.27;;;19.95;;
51485;SDS011;37565;51.352;6.412;2023-03-02T00:13:19;40.35;;;21.75;;
51485;SDS011;37565;51.352;6.412;2023-03-02T00:15:48;32.42;;;20.58;;
51485;SDS011;37565;51.352;6.412;2023-03-02T00:18:17;30.63;;;20.23;;
51485;SDS011;37565;51.352;6.412;2023-03-02T00:20:45;40.58;;;23.95;;
51485;SDS011;37565;51.352;6.412;2023-03-02T00:23:13;23.88;;;14.23;;
51485;SDS011;37565;51.352;6.412;2023-03-02T00:25:41;31.95;;;19.30;;
51485;SDS011;37565;51.352;6.412;2023-03-02T00:28:09;38.42;;;24.73;;
51485;SDS011;37565;51.352;6.412;2023-03-02T00:30:37;32.83;;;19.48;;
51485;SDS011;37565;51.352;6.412;2023-03-02T17:12:24;24.30;;;7.60;;
51485;SDS011;37565;51.352;6.412;2023-03-02T17:14:52;21.00;;;7.32;;
51485;SDS011;37565;51.352;6.412;2023-03-02T17:17:20;58.20;;;7.43;;
51485;SDS011;37565;51.352;6.412;2023-03-02T17:19:47;16.02;;;5.85;;
51485;SDS011;37565;51.352;6.412;2023-03-02T17:22:15;17.67;;;6.05;;
51485;SDS011;37565;51.352;6.412;2023-03-02T17:24:43;14.77;;;5.70;;
51485;SDS011;37565;51.352;6.412;2023-03-02T17:27:11;18.10;;;7.97;;
51485;SDS011;37565;51.352;6.412;2023-03-02T17:29:52;25.80;;;11.63;;
51485;SDS011;37565;51.352;6.412;2023-03-02T17:32:21;21.63;;;11.98;;
51485;SDS011;37565;51.352;6.412;2023-03-02T17:34:49;27.98;;;9.63;;
51485;SDS011;37565;51.352;6.412;2023-03-02T17:37:17;20.50;;;12.30;;
51485;SDS011;37565;51.352;6.412;2023-03-02T17:39:47;33.47;;;17.13;;
51485;SDS011;37565;51.352;6.412;2023-03-02T17:42:16;29.58;;;16.02;;
51485;SDS011;37565;51.352;6.412;2023-03-02T17:44:44;31.60;;;16.85;;
51485;SDS011;37565;51.352;6.412;2023-03-02T17:47:14;31.00;;;16.40;;
51485;SDS011;37565;51.352;6.412;2023-03-02T17:49:43;31.80;;;16.65;;
51485;SDS011;37565;51.352;6.412;2023-03-02T17:52:11;27.52;;;14.35;;
51485;SDS011;37565;51.352;6.412;2023-03-02T17:54:40;33.70;;;18.25;;
51485;SDS011;37565;51.352;6.412;2023-03-02T17:57:08;33.08;;;18.35;;
51485;SDS011;37565;51.352;6.412;2023-03-02T17:59:37;34.30;;;19.48;;
51485;SDS011;37565;51.352;6.412;2023-03-02T18:02:05;40.45;;;22.45;;
51485;SDS011;37565;51.352;6.412;2023-03-02T18:04:35;31.73;;;17.60;;
51485;SDS011;37565;51.352;6.412;2023-03-02T18:07:02;46.70;;;24.17;;
51485;SDS011;37565;51.352;6.412;2023-03-02T18:09:30;34.70;;;20.02;;
51485;SDS011;37565;51.352;6.412;2023-03-02T18:11:58;25.33;;;13.82;;
51485;SDS011;37565;51.352;6.412;2023-03-02T18:14:27;28.48;;;15.40;;
51485;SDS011;37565;51.352;6.412;2023-03-02T18:16:56;26.65;;;15.70;;
51485;SDS011;37565;51.352;6.412;2023-03-02T18:19:24;28.48;;;16.75;;
51485;SDS011;37565;51.352;6.412;2023-03-02T18:21:53;30.33;;;17.92;;
51485;SDS011;37565;51.352;6.412;2023-03-02T18:24:21;26.33;;;15.63;;
51485;SDS011;37565;51.352;6.412;2023-03-02T18:26:49;26.52;;;16.13;;
51485;SDS011;37565;51.352;6.412;2023-03-02T18:29:17;30.08;;;16.35;;
51485;SDS011;37565;51.352;6.412;2023-03-02T18:31:45;41.00;;;16.48;;
51485;SDS011;37565;51.352;6.412;2023-03-02T18:34:12;32.38;;;18.63;;
51485;SDS011;37565;51.352;6.412;2023-03-02T18:36:40;34.30;;;20.45;;
51485;SDS011;37565;51.352;6.412;2023-03-02T18:39:10;27.88;;;16.42;;
51485;SDS011;37565;51.352;6.412;2023-03-02T18:41:37;25.45;;;15.82;;
51485;SDS011;37565;51.352;6.412;2023-03-02T18:44:06;34.55;;;21.10;;
51485;SDS011;37565;51.352;6.412;2023-03-02T18:46:34;45.40;;;27.65;;
51485;SDS011;37565;51.352;6.412;2023-03-02T18:49:02;39.90;;;24.48;;
51485;SDS011;37565;51.352;6.412;2023-03-02T18:51:31;31.45;;;18.38;;
51485;SDS011;37565;51.352;6.412;2023-03-02T18:53:59;32.22;;;21.02;;
51485;SDS011;37565;51.352;6.412;2023-03-02T18:56:28;36.65;;;23.00;;
51485;SDS011;37565;51.352;6.412;2023-03-02T18:58:56;42.53;;;27.40;;
51485;SDS011;37565;51.352;6.412;2023-03-02T19:01:24;32.00;;;20.08;;
51485;SDS011;37565;51.352;6.412;2023-03-02T19:03:56;43.20;;;25.73;;
51485;SDS011;37565;51.352;6.412;2023-03-02T19:06:27;37.00;;;23.02;;
51485;SDS011;37565;51.352;6.412;2023-03-02T19:08:55;41.20;;;24.15;;
51485;SDS011;37565;51.352;6.412;2023-03-02T19:11:24;29.35;;;17.65;;
51485;SDS011;37565;51.352;6.412;2023-03-02T19:13:54;30.92;;;18.77;;
51485;SDS011;37565;51.352;6.412;2023-03-02T19:16:21;45.60;;;25.58;;
51485;SDS011;37565;51.352;6.412;2023-03-02T19:18:49;33.80;;;21.13;;
51485;SDS011;37565;51.352;6.412;2023-03-02T19:21:17;33.20;;;21.00;;
51485;SDS011;37565;51.352;6.412;2023-03-02T19:23:45;39.90;;;26.85;;
51485;SDS011;37565;51.352;6.412;2023-03-02T19:26:13;56.20;;;29.40;;
51485;SDS011;37565;51.352;6.412;2023-03-02T19:28:41;31.33;;;20.33;;
51485;SDS011;37565;51.352;6.412;2023-03-02T19:31:10;35.08;;;21.30;;
51485;SDS011;37565;51.352;6.412;2023-03-02T19:33:39;45.78;;;28.65;;
51485;SDS011;37565;51.352;6.412;2023-03-02T19:36:08;56.38;;;33.55;;
51485;SDS011;37565;51.352;6.412;2023-03-02T19:38:36;43.53;;;25.27;;
51485;SDS011;37565;51.352;6.412;2023-03-02T19:41:07;41.53;;;25.65;;
51485;SDS011;37565;51.352;6.412;2023-03-02T19:43:37;38.30;;;21.35;;
51485;SDS011;37565;51.352;6.412;2023-03-02T19:46:05;45.28;;;28.67;;
51485;SDS011;37565;51.352;6.412;2023-03-02T19:48:37;43.53;;;27.58;;
51485;SDS011;37565;51.352;6.412;2023-03-02T19:51:05;30.52;;;19.80;;
51485;SDS011;37565;51.352;6.412;2023-03-02T19:53:35;46.28;;;28.17;;
51485;SDS011;37565;51.352;6.412;2023-03-02T19:56:05;27.45;;;18.25;;
51485;SDS011;37565;51.352;6.412;2023-03-02T19:58:38;28.40;;;17.98;;
51485;SDS011;37565;51.352;6.412;2023-03-02T20:01:12;29.75;;;18.83;;
51485;SDS011;37565;51.352;6.412;2023-03-02T20:03:48;28.48;;;18.85;;
51485;SDS011;37565;51.352;6.412;2023-03-02T20:06:17;27.70;;;17.95;;
51485;SDS011;37565;51.352;6.412;2023-03-02T20:08:46;27.30;;;19.63;;
51485;SDS011;37565;51.352;6.412;2023-03-02T20:11:14;32.65;;;21.98;;
51485;SDS011;37565;51.352;6.412;2023-03-02T20:13:43;33.15;;;18.70;;
51485;SDS011;37565;51.352;6.412;2023-03-02T20:16:11;30.77;;;19.73;;
51485;SDS011;37565;51.352;6.412;2023-03-02T20:18:40;34.95;;;22.63;;
51485;SDS011;37565;51.352;6.412;2023-03-02T20:21:12;30.88;;;20.95;;
51485;SDS011;37565;51.352;6.412;2023-03-02T20:23:40;30.63;;;19.52;;
51485;SDS011;37565;51.352;6.412;2023-03-02T20:26:08;31.17;;;20.58;;
51485;SDS011;37565;51.352;6.412;2023-03-02T20:28:36;37.00;;;23.75;;
51485;SDS011;37565;51.352;6.412;2023-03-02T20:31:06;31.48;;;20.70;;
51485;SDS011;37565;51.352;6.412;2023-03-02T20:33:38;29.20;;;20.20;;
51485;SDS011;37565;51.352;6.412;2023-03-02T20:36:10;29.48;;;19.20;;
51485;SDS011;37565;51.352;6.412;2023-03-02T20:38:41;31.42;;;20.70;;
51485;SDS011;37565;51.352;6.412;2023-03-02T20:41:11;28.65;;;18.63;;
51485;SDS011;37565;51.352;6.412;2023-03-02T20:43:40;30.08;;;18.20;;
51485;SDS011;37565;51.352;6.412;2023-03-02T20:46:09;28.92;;;17.38;;
51485;SDS011;37565;51.352;6.412;2023-03-02T20:51:12;33.25;;;19.73;;
51485;SDS011;37565;51.352;6.412;2023-03-02T20:53:40;38.92;;;23.83;;
51485;SDS011;37565;51.352;6.412;2023-03-02T20:56:10;41.10;;;25.73;;
51485;SDS011;37565;51.352;6.412;2023-03-02T20:58:38;41.97;;;27.15;;
51485;SDS011;37565;51.352;6.412;2023-03-02T21:01:08;34.67;;;23.80;;
51485;SDS011;37565;51.352;6.412;2023-03-02T21:03:38;31.90;;;18.95;;
51485;SDS011;37565;51.352;6.412;2023-03-02T21:06:07;37.75;;;23.95;;
51485;SDS011;37565;51.352;6.412;2023-03-02T21:08:37;31.65;;;20.40;;
51485;SDS011;37565;51.352;6.412;2023-03-02T21:11:05;38.75;;;22.48;;
51485;SDS011;37565;51.352;6.412;2023-03-02T21:13:34;27.33;;;18.08;;
51485;SDS011;37565;51.352;6.412;2023-03-02T21:16:04;23.80;;;17.08;;
51485;SDS011;37565;51.352;6.412;2023-03-02T21:18:34;26.92;;;17.75;;
51485;SDS011;37565;51.352;6.412;2023-03-02T21:21:02;30.30;;;19.80;;
51485;SDS011;37565;51.352;6.412;2023-03-02T21:23:30;23.48;;;16.60;;
51485;SDS011;37565;51.352;6.412;2023-03-02T21:26:00;36.47;;;19.55;;
51485;SDS011;37565;51.352;6.412;2023-03-02T21:28:28;35.95;;;21.58;;
51485;SDS011;37565;51.352;6.412;2023-03-02T21:30:55;32.38;;;20.88;;
51485;SDS011;37565;51.352;6.412;2023-03-02T21:33:23;33.95;;;22.83;;
51485;SDS011;37565;51.352;6.412;2023-03-02T21:35:51;37.47;;;23.02;;
51485;SDS011;37565;51.352;6.412;2023-03-02T21:38:19;34.80;;;23.25;;
51485;SDS011;37565;51.352;6.412;2023-03-02T21:40:47;36.40;;;23.75;;
51485;SDS011;37565;51.352;6.412;2023-03-02T21:43:17;33.38;;;19.63;;
51485;SDS011;37565;51.352;6.412;2023-03-02T21:45:45;29.75;;;20.52;;
51485;SDS011;37565;51.352;6.412;2023-03-02T21:48:13;38.03;;;24.15;;
51485;SDS011;37565;51.352;6.412;2023-03-02T21:50:41;42.90;;;27.10;;
51485;SDS011;37565;51.352;6.412;2023-03-02T21:53:10;39.50;;;25.48;;
51485;SDS011;37565;51.352;6.412;2023-03-02T21:55:37;39.15;;;23.45;;
51485;SDS011;37565;51.352;6.412;2023-03-02T21:58:05;42.85;;;20.63;;
51485;SDS011;37565;51.352;6.412;2023-03-02T22:00:36;41.58;;;22.52;;
51485;SDS011;37565;51.352;6.412;2023-03-02T22:03:05;40.50;;;25.83;;
51485;SDS011;37565;51.352;6.412;2023-03-02T22:05:34;41.53;;;25.15;;
51485;SDS011;37565;51.352;6.412;2023-03-02T22:08:02;31.25;;;21.27;;
51485;SDS011;37565;51.352;6.412;2023-03-02T22:10:31;41.35;;;26.40;;
51485;SDS011;37565;51.352;6.412;2023-03-02T22:13:05;45.38;;;26.08;;
51485;SDS011;37565;51.352;6.412;2023-03-02T22:15:44;36.72;;;24.50;;
51485;SDS011;37565;51.352;6.412;2023-03-02T22:18:14;37.88;;;23.73;;
51485;SDS011;37565;51.352;6.412;2023-03-02T22:20:44;32.67;;;20.73;;
51485;SDS011;37565;51.352;6.412;2023-03-02T22:23:14;36.40;;;21.90;;
51485;SDS011;37565;51.352;6.412;2023-03-02T22:25:44;35.00;;;21.02;;
51485;SDS011;37565;51.352;6.412;2023-03-02T22:28:12;35.38;;;23.10;;
51485;SDS011;37565;51.352;6.412;2023-03-02T22:30:44;42.40;;;25.38;;
51485;SDS011;37565;51.352;6.412;2023-03-02T22:33:14;47.00;;;29.25;;
51485;SDS011;37565;51.352;6.412;2023-03-02T22:35:44;45.75;;;29.33;;
51485;SDS011;37565;51.352;6.412;2023-03-02T22:38:15;56.28;;;34.75;;
51485;SDS011;37565;51.352;6.412;2023-03-02T22:40:48;50.10;;;30.83;;
51485;SDS011;37565;51.352;6.412;2023-03-02T22:43:18;45.63;;;28.17;;
51485;SDS011;37565;51.352;6.412;2023-03-02T22:45:52;71.97;;;45.42;;
51485;SDS011;37565;51.352;6.412;2023-03-02T22:48:25;41.17;;;24.63;;
51485;SDS011;37565;51.352;6.412;2023-03-02T22:50:55;58.35;;;36.63;;
51485;SDS011;37565;51.352;6.412;2023-03-02T22:53:24;55.10;;;33.42;;
51485;SDS011;37565;51.352;6.412;2023-03-02T22:55:54;30.30;;;20.80;;
51485;SDS011;37565;51.352;6.412;2023-03-02T22:58:28;32.97;;;20.85;;
51485;SDS011;37565;51.352;6.412;2023-03-02T23:01:19;29.25;;;17.65;;
51485;SDS011;37565;51.352;6.412;2023-03-02T23:03:49;28.38;;;16.83;;
51485;SDS011;37565;51.352;6.412;2023-03-02T23:06:26;25.58;;;15.85;;
51485;SDS011;37565;51.352;6.412;2023-03-02T23:08:56;23.98;;;15.40;;
51485;SDS011;37565;51.352;6.412;2023-03-02T23:11:26;20.63;;;13.00;;
51485;SDS011;37565;51.352;6.412;2023-03-02T23:13:55;20.00;;;12.95;;
51485;SDS011;37565;51.352;6.412;2023-03-02T23:16:25;20.63;;;12.32;;
51485;SDS011;37565;51.352;6.412;2023-03-02T23:18:55;18.27;;;11.40;;
51485;SDS011;37565;51.352;6.412;2023-03-02T23:21:25;21.25;;;12.10;;
51485;SDS011;37565;51.352;6.412;2023-03-02T23:24:03;16.90;;;10.57;;
51485;SDS011;37565;51.352;6.412;2023-03-02T23:26:32;17.27;;;10.60;;
51485;SDS011;37565;51.352;6.412;2023-03-02T23:29:00;16.27;;;9.52;;
51485;SDS011;37565;51.352;6.412;2023-03-02T23:31:30;16.70;;;10.77;;
51485;SDS011;37565;51.352;6.412;2023-03-02T23:33:58;20.45;;;10.35;;
51485;SDS011;37565;51.352;6.412;2023-03-02T23:36:25;17.10;;;10.32;;
51485;SDS011;37565;51.352;6.412;2023-03-02T23:38:56;14.98;;;9.40;;
51485;SDS011;37565;51.352;6.412;2023-03-02T23:41:24;13.93;;;9.38;;
51485;SDS011;37565;51.352;6.412;2023-03-02T23:43:52;16.13;;;9.10;;
51485;SDS011;37565;51.352;6.412;2023-03-02T23:46:20;13.98;;;8.63;;
51485;SDS011;37565;51.352;6.412;2023-03-02T23:48:49;13.57;;;9.07;;
51485;SDS011;37565;51.352;6.412;2023-03-02T23:51:17;13.65;;;9.25;;
51485;SDS011;37565;51.352;6.412;2023-03-02T23:53:45;13.85;;;8.82;;
51485;SDS011;37565;51.352;6.412;2023-03-02T23:56:13;13.40;;;8.70;;
51485;SDS011;37565;51.352;6.412;2023-03-02T23:58:41;13.43;;;9.35;;
